Time;durP1;ratioP1;P1;durP2;ratioP2;P2;SDS_P1;SDS_P2;PMS_P1;PMS_P2;Temp;Humidity;BMP_temperature;BMP_pressure;BME280_temperature;BME280_humidity;BME280_pressure;Samples;Min_cycle;Max_cycle;Signal;HPM_P1;HPM_P2
2022/05/22 00:01:14;;;;;;;0.55;0.32;;;;;;;-145.06;100.00;60892.56;4794519;28;20035;-91
2022/05/22 00:04:05;;;;;;;1.02;0.50;;;;;;;-145.06;100.00;60892.56;4791342;28;20038;-91
2022/05/22 00:06:51;;;;;;;0.52;0.30;;;;;;;-145.06;100.00;60892.56;4792446;28;20066;-91
2022/05/22 00:09:31;;;;;;;0.30;0.20;;;;;;;-145.06;100.00;60892.56;4789704;28;20070;-91
2022/05/22 00:12:11;;;;;;;0.70;0.45;;;;;;;-145.06;100.00;60892.56;4790036;28;20034;-91
2022/05/22 00:14:55;;;;;;;0.52;0.30;;;;;;;-145.06;100.00;60892.56;4789830;28;20039;-92
2022/05/22 00:17:34;;;;;;;1.80;0.40;;;;;;;-145.06;100.00;60892.56;4803605;28;20106;-92
2022/05/22 00:20:19;;;;;;;0.50;0.40;;;;;;;-145.06;100.00;60892.56;4789899;28;20362;-91
2022/05/22 00:23:01;;;;;;;1.15;0.43;;;;;;;-145.06;100.00;60892.56;4800407;28;20286;-91
2022/05/22 00:25:45;;;;;;;0.40;0.30;;;;;;;-145.06;100.00;60892.56;4803392;28;20118;-92
2022/05/22 00:28:27;;;;;;;0.40;0.40;;;;;;;-145.06;100.00;60892.56;4791316;28;20481;-93
2022/05/22 00:31:06;;;;;;;0.50;0.30;;;;;;;15.88;100.00;60892.56;4795585;28;20356;-92
2022/05/22 00:33:48;;;;;;;0.60;0.43;;;;;;;-145.06;100.00;60892.56;4789998;28;20113;-91
2022/05/22 00:36:27;;;;;;;0.98;0.50;;;;;;;-145.06;100.00;60892.56;4789077;28;20039;-92
2022/05/22 00:39:06;;;;;;;1.63;0.50;;;;;;;-145.06;100.00;60892.56;4803113;28;20027;-93
2022/05/22 00:41:56;;;;;;;0.70;0.40;;;;;;;-145.06;100.00;60892.56;4788850;28;20034;-92
2022/05/22 00:44:36;;;;;;;0.65;0.40;;;;;;;-145.06;100.00;60892.56;4789121;28;20062;-92
2022/05/22 00:47:18;;;;;;;0.98;0.43;;;;;;;14.57;100.00;60892.56;4801424;28;20109;-91
2022/05/22 00:50:00;;;;;;;1.83;0.43;;;;;;;14.53;100.00;60892.56;4807559;28;20038;-92
2022/05/22 00:52:45;;;;;;;1.00;0.50;;;;;;;-145.06;100.00;60892.56;4808206;28;20113;-92
2022/05/22 00:55:33;;;;;;;0.90;0.32;;;;;;;-145.06;100.00;60892.56;4784434;28;20030;-92
2022/05/22 00:58:32;;;;;;;0.50;0.45;;;;;;;14.38;100.00;60892.56;4793514;28;20037;-92
2022/05/22 01:01:14;;;;;;;0.50;0.30;;;;;;;-145.06;100.00;60892.56;4776500;28;20065;-90
2022/05/22 01:03:55;;;;;;;0.80;0.38;;;;;;;-145.06;100.00;60892.56;4799582;28;20365;-91
2022/05/22 01:06:35;;;;;;;0.40;0.20;;;;;;;14.33;100.00;60892.56;4791957;28;20026;-90
2022/05/22 01:09:35;;;;;;;0.52;0.40;;;;;;;-145.06;100.00;60892.56;4788426;28;20031;-91
2022/05/22 01:12:40;;;;;;;;;;;;;;;;;;;;;
2022/05/22 01:15:23;;;;;;;0.30;0.30;;;;;;;-145.06;100.00;60892.56;4789121;28;20074;-92
2022/05/22 01:18:06;;;;;;;0.85;0.40;;;;;;;-145.06;100.00;60892.56;4794603;28;20031;-91
2022/05/22 01:20:47;;;;;;;1.48;0.50;;;;;;;-145.06;100.00;60892.56;4770423;28;20039;-89
2022/05/22 01:23:26;;;;;;;0.65;0.47;;;;;;;-145.06;100.00;60892.56;4788193;28;20030;-90
2022/05/22 01:26:05;;;;;;;0.57;0.40;;;;;;;-145.06;100.00;60892.56;4788220;28;20030;-90
2022/05/22 01:28:44;;;;;;;0.80;0.43;;;;;;;-145.06;100.00;60892.56;4788221;28;20026;-92
2022/05/22 01:31:23;;;;;;;1.63;0.50;;;;;;;-145.06;100.00;60892.56;4792857;28;20117;-90
2022/05/22 01:34:03;;;;;;;0.95;0.40;;;;;;;-145.06;100.00;60892.56;4788168;28;20109;-91
2022/05/22 01:36:42;;;;;;;0.30;0.30;;;;;;;-145.06;100.00;60892.56;4793968;28;20034;-91
2022/05/22 01:39:24;;;;;;;0.38;0.30;;;;;;;-145.06;100.00;60892.56;4801287;28;20042;-91
2022/05/22 01:42:06;;;;;;;0.57;0.32;;;;;;;-145.06;100.00;60892.56;4791328;28;20054;-91
2022/05/22 01:44:45;;;;;;;0.70;0.50;;;;;;;-145.06;100.00;60892.56;4783451;28;20031;-91
2022/05/22 01:47:25;;;;;;;2.08;0.45;;;;;;;-145.06;100.00;60892.56;4801975;28;20022;-90
2022/05/22 01:50:06;;;;;;;1.05;0.60;;;;;;;-145.06;100.00;60892.56;4795600;28;20031;-91
2022/05/22 01:52:53;;;;;;;1.38;0.50;;;;;;;-145.06;100.00;60892.56;4787503;28;20027;-91
2022/05/22 01:55:35;;;;;;;0.77;0.50;;;;;;;-145.06;100.00;60892.56;4793750;28;20062;-91
2022/05/22 01:58:14;;;;;;;1.40;0.40;;;;;;;-145.06;100.00;60892.56;4789464;28;20062;-92
2022/05/22 02:00:58;;;;;;;0.75;0.40;;;;;;;-145.06;100.00;60892.56;4784338;29;20051;-90
2022/05/22 02:03:38;;;;;;;1.70;0.57;;;;;;;-145.06;100.00;60892.56;4786340;28;20034;-92
2022/05/22 02:06:24;;;;;;;1.70;0.50;;;;;;;-145.06;100.00;60892.56;4769161;29;20035;-91
2022/05/22 02:09:07;;;;;;;0.77;0.50;;;;;;;-145.06;100.00;60892.56;4789112;28;20058;-92
2022/05/22 02:11:46;;;;;;;0.50;0.40;;;;;;;-145.06;100.00;60892.56;4804804;28;20034;-91
2022/05/22 02:14:26;;;;;;;0.68;0.40;;;;;;;-145.06;100.00;60892.56;4806756;28;20035;-91
2022/05/22 02:17:08;;;;;;;0.77;0.50;;;;;;;-145.06;100.00;60892.56;4806579;28;20039;-91
2022/05/22 02:19:47;;;;;;;1.13;0.50;;;;;;;-145.06;100.00;60892.56;4798365;28;20035;-93
2022/05/22 02:22:26;;;;;;;0.50;0.50;;;;;;;-145.06;100.00;60892.56;4782765;29;20031;-90
2022/05/22 02:25:06;;;;;;;0.47;0.38;;;;;;;-145.06;100.00;60892.56;4783108;29;20019;-90
2022/05/22 02:28:11;;;;;;;;;;;;;;;13.27;100.00;60892.56;4783097;29;20654;-92
2022/05/22 02:31:01;;;;;;;0.77;0.30;;;;;;;13.21;100.00;60892.56;4787968;28;19914;-90
2022/05/22 02:33:42;;;;;;;0.60;0.50;;;;;;;13.28;100.00;60892.56;4803809;28;20030;-91
2022/05/22 02:36:27;;;;;;;1.05;0.50;;;;;;;13.14;100.00;60892.56;4795786;28;20445;-91
2022/05/22 02:39:18;;;;;;;0.52;0.40;;;;;;;-145.06;100.00;60892.56;4806672;28;20034;-92
2022/05/22 02:42:04;;;;;;;0.45;0.40;;;;;;;-145.06;100.00;60892.56;4820245;28;20030;-93
2022/05/22 02:44:43;;;;;;;0.80;0.60;;;;;;;-145.06;100.00;60892.56;4806678;28;20034;-91
2022/05/22 02:47:28;;;;;;;1.20;0.50;;;;;;;-145.06;100.00;60892.56;4816266;28;20054;-91
2022/05/22 02:50:22;;;;;;;0.85;0.40;;;;;;;-145.06;100.00;60892.56;4788200;28;20030;-90
2022/05/22 02:53:12;;;;;;;0.95;0.45;;;;;;;-145.06;100.00;60892.56;4801143;28;20058;-91
2022/05/22 02:55:51;;;;;;;0.88;0.60;;;;;;;-145.06;100.00;60892.56;4789582;28;20369;-91
2022/05/22 02:58:36;;;;;;;0.40;0.40;;;;;;;-145.06;100.00;60892.56;4794086;28;20027;-92
2022/05/22 03:01:20;;;;;;;0.73;0.40;;;;;;;-145.06;100.00;60892.56;4788137;28;20035;-91
2022/05/22 03:04:02;;;;;;;0.90;0.40;;;;;;;-145.06;100.00;60892.56;4789584;28;20677;-91
2022/05/22 03:06:46;;;;;;;1.02;0.50;;;;;;;-145.06;100.00;60892.56;4812324;28;20026;-91
2022/05/22 03:09:28;;;;;;;1.02;0.50;;;;;;;-145.06;100.00;60892.56;4823554;28;20030;-91
2022/05/22 03:12:13;;;;;;;0.85;0.50;;;;;;;-145.06;100.00;60892.56;4797708;28;20034;-91
2022/05/22 03:14:56;;;;;;;0.73;0.43;;;;;;;-145.06;100.00;60892.56;4823403;28;20031;-90
2022/05/22 03:17:35;;;;;;;0.80;0.40;;;;;;;-145.06;100.00;60892.56;4772245;29;20023;-91
2022/05/22 03:20:16;;;;;;;1.15;0.40;;;;;;;-145.06;100.00;60892.56;4788809;28;20039;-92
2022/05/22 03:22:57;;;;;;;0.60;0.35;;;;;;;-145.06;100.00;60892.56;4772154;28;20027;-91
2022/05/22 03:25:36;;;;;;;0.82;0.40;;;;;;;-145.06;100.00;60892.56;4797229;28;20113;-92
2022/05/22 03:28:23;;;;;;;0.77;0.40;;;;;;;-145.06;100.00;60892.56;4822631;28;20105;-91
2022/05/22 03:31:02;;;;;;;1.08;0.65;;;;;;;-145.06;100.00;60892.56;4809229;28;20039;-91
2022/05/22 03:33:41;;;;;;;0.73;0.50;;;;;;;-145.06;100.00;60892.56;4809335;28;20026;-93
2022/05/22 03:36:25;;;;;;;1.20;0.60;;;;;;;-145.06;100.00;60892.56;4809092;28;20488;-91
2022/05/22 03:39:04;;;;;;;1.58;0.60;;;;;;;-145.06;100.00;60892.56;4772159;29;20035;-92
2022/05/22 03:41:48;;;;;;;3.00;0.60;;;;;;;-145.06;100.00;60892.56;4786011;29;20110;-92
2022/05/22 03:44:31;;;;;;;0.70;0.60;;;;;;;-145.06;100.00;60892.56;4771654;29;20039;-91
2022/05/22 03:47:11;;;;;;;1.05;0.70;;;;;;;-145.06;100.00;60892.56;4790472;28;20030;-92
2022/05/22 03:50:08;;;;;;;;;;;;;;;;;;;;;
2022/05/22 03:52:58;;;;;;;1.10;0.55;;;;;;;-145.06;100.00;60892.56;4813429;28;20038;-90
2022/05/22 03:55:42;;;;;;;3.33;0.65;;;;;;;-145.06;100.00;60892.56;4801566;28;20117;-91
2022/05/22 03:58:29;;;;;;;1.27;0.60;;;;;;;-145.06;100.00;60892.56;4803368;28;20090;-92
2022/05/22 04:01:14;;;;;;;0.85;0.65;;;;;;;-145.06;100.00;60892.56;4800439;28;20039;-91
2022/05/22 04:04:06;;;;;;;0.98;0.50;;;;;;;-145.06;100.00;60892.56;4775345;29;20382;-91
2022/05/22 04:07:15;;;;;;;0.50;0.43;;;;;;;-145.06;100.00;60892.56;4772643;28;20023;-91
2022/05/22 04:10:05;;;;;;;0.68;0.50;;;;;;;-145.06;100.00;60892.56;4819294;28;20031;-91
2022/05/22 04:12:45;;;;;;;0.60;0.50;;;;;;;-145.06;100.00;60892.56;4803546;28;20038;-91
2022/05/22 04:15:23;;;;;;;0.65;0.60;;;;;;;-145.06;100.00;60892.56;4816534;28;20038;-92
2022/05/22 04:18:07;;;;;;;0.57;0.47;;;;;;;-145.06;100.00;60892.56;4797810;28;20483;-90
2022/05/22 04:20:57;;;;;;;1.20;0.70;;;;;;;-145.06;100.00;60892.56;4789938;28;20046;-91
2022/05/22 04:26:54;;;;;;;0.90;0.50;;;;;;;-145.06;100.00;60892.56;4804387;28;20603;-91
2022/05/22 04:29:52;;;;;;;0.73;0.50;;;;;;;-145.06;100.00;60892.56;4785279;28;20117;-93
2022/05/22 04:32:45;;;;;;;1.00;0.75;;;;;;;-145.06;100.00;60892.56;4800788;28;20365;-90
2022/05/22 04:35:29;;;;;;;0.82;0.50;;;;;;;-145.06;100.00;60892.56;4822587;28;20038;-91
2022/05/22 04:38:28;;;;;;;1.08;0.73;;;;;;;-145.06;100.00;60892.56;4822253;28;20018;-91
2022/05/22 04:41:25;;;;;;;1.33;0.60;;;;;;;-145.06;100.00;60892.56;4808715;28;20058;-91
2022/05/22 04:44:05;;;;;;;1.48;0.90;;;;;;;-145.06;100.00;60892.56;4799555;28;20480;-93
2022/05/22 04:47:09;;;;;;;;;;;;;;;-145.06;100.00;60892.56;4790548;28;20031;-90
2022/05/22 04:49:48;;;;;;;0.40;0.40;;;;;;;-145.06;100.00;60892.56;4784341;28;19918;-92
2022/05/22 04:52:27;;;;;;;0.53;0.40;;;;;;;-145.06;100.00;60892.56;4793782;28;20031;-92
2022/05/22 04:55:08;;;;;;;0.60;0.50;;;;;;;-145.06;100.00;60892.56;4771178;29;20031;-91
2022/05/22 04:58:12;;;;;;;2.67;0.63;;;;;;;-145.06;100.00;60892.56;4792464;28;20027;-92
2022/05/22 05:01:13;;;;;;;0.50;0.40;;;;;;;-145.06;100.00;60892.56;4791204;28;20035;-91
2022/05/22 05:03:57;;;;;;;0.75;0.50;;;;;;;-145.06;100.00;60892.56;4803787;28;20038;-92
2022/05/22 05:07:28;;;;;;;1.25;0.60;;;;;;;-145.06;100.00;60892.56;4789337;28;20062;-91
2022/05/22 05:10:39;;;;;;;1.00;0.60;;;;;;;-145.06;100.00;60892.56;4785068;28;20031;-91
2022/05/22 05:13:45;;;;;;;0.50;0.45;;;;;;;-145.06;100.00;60892.56;4802967;28;20045;-91
2022/05/22 05:19:47;;;;;;;1.13;0.60;;;;;;;-145.06;100.00;60892.56;4822957;28;20022;-91
2022/05/22 05:22:30;;;;;;;0.98;0.60;;;;;;;-145.06;100.00;60892.56;4822065;28;20030;-91
2022/05/22 05:25:14;;;;;;;1.10;0.57;;;;;;;-145.06;100.00;60892.56;4808542;28;20034;-90
2022/05/22 05:28:04;;;;;;;2.33;0.52;;;;;;;-145.06;100.00;60892.56;4822721;28;20030;-92
2022/05/22 05:31:18;;;;;;;0.63;0.60;;;;;;;-145.06;100.00;60892.56;4808576;28;20090;-91
2022/05/22 05:34:03;;;;;;;0.70;0.60;;;;;;;-145.06;100.00;60892.56;4793510;28;20030;-91
2022/05/22 05:36:45;;;;;;;0.75;0.47;;;;;;;-145.06;100.00;60892.56;4806146;28;20356;-91
2022/05/22 05:39:52;;;;;;;0.60;0.57;;;;;;;-145.06;100.00;60892.56;4789623;28;20027;-91
2022/05/22 05:42:35;;;;;;;2.22;0.60;;;;;;;-145.06;100.00;60892.56;4775283;28;20027;-92
2022/05/22 05:45:22;;;;;;;1.38;0.80;;;;;;;15.88;100.00;60892.56;4801571;28;20034;-92
2022/05/22 05:48:13;;;;;;;2.42;0.60;;;;;;;13.28;100.00;60892.56;4808058;28;20026;-91
2022/05/22 05:50:57;;;;;;;1.60;0.77;;;;;;;13.28;100.00;60892.56;4808389;28;20061;-90
2022/05/22 05:53:48;;;;;;;2.65;0.90;;;;;;;13.17;100.00;60892.56;4784469;29;20035;-91
2022/05/22 05:57:00;;;;;;;1.73;0.73;;;;;;;13.28;100.00;60892.56;4784429;29;20035;-91
2022/05/22 05:59:54;;;;;;;1.70;0.68;;;;;;;-145.06;100.00;60892.56;4786552;28;20030;-92
2022/05/22 06:02:50;;;;;;;1.33;0.70;;;;;;;-145.06;100.00;60892.56;4808176;28;20030;-93
2022/05/22 06:05:30;;;;;;;0.95;0.70;;;;;;;-145.06;100.00;60892.56;4807856;28;20070;-91
2022/05/22 06:08:26;;;;;;;1.40;0.88;;;;;;;-145.06;100.00;60892.56;4807789;28;20058;-91
2022/05/22 06:11:24;;;;;;;1.33;0.90;;;;;;;-145.06;100.00;60892.56;4807629;28;20030;-91
2022/05/22 06:14:31;;;;;;;;;;;;;;;;;;;;;
2022/05/22 06:17:31;;;;;;;1.63;1.05;;;;;;;-145.06;100.00;60892.56;4803372;28;20031;-92
2022/05/22 06:20:15;;;;;;;1.30;0.80;;;;;;;-145.06;100.00;60892.56;4789088;28;20452;-91
2022/05/22 06:23:05;;;;;;;1.40;1.10;;;;;;;-145.06;100.00;60892.56;4789507;28;20349;-92
2022/05/22 06:25:50;;;;;;;1.88;1.10;;;;;;;-145.06;100.00;60892.56;4805315;28;20034;-91
2022/05/22 06:28:41;;;;;;;2.47;1.20;;;;;;;-145.06;100.00;60892.56;4801562;28;20035;-91
2022/05/22 06:31:43;;;;;;;1.05;0.95;;;;;;;-145.06;100.00;60892.56;4786899;28;20027;-91
2022/05/22 06:34:41;;;;;;;1.42;0.85;;;;;;;-145.06;100.00;60892.56;4807640;28;20035;-90
2022/05/22 06:37:26;;;;;;;1.50;1.00;;;;;;;-145.06;100.00;60892.56;4820689;28;20027;-92
2022/05/22 06:40:17;;;;;;;1.63;0.90;;;;;;;-145.06;100.00;60892.56;4810750;28;20030;-93
2022/05/22 06:43:11;;;;;;;3.53;1.08;;;;;;;-145.06;100.00;60892.56;4811275;28;20030;-91
2022/05/22 06:45:53;;;;;;;2.55;1.27;;;;;;;187.52;100.00;60892.56;4808841;28;20105;-92
2022/05/22 06:49:04;;;;;;;1.45;0.90;;;;;;;14.40;100.00;60892.56;4799684;28;20109;-91
2022/05/22 06:52:02;;;;;;;2.92;1.20;;;;;;;-145.06;100.00;60892.56;4813472;28;20031;-91
2022/05/22 06:54:44;;;;;;;1.50;1.00;;;;;;;-145.06;100.00;60892.56;4792056;28;20066;-90
2022/05/22 06:57:28;;;;;;;3.17;1.10;;;;;;;-145.06;100.00;60892.56;4798001;28;20057;-91
2022/05/22 07:00:14;;;;;;;1.35;1.15;;;;;;;-145.06;100.00;60892.56;4813465;28;20034;-93
2022/05/22 07:02:59;;;;;;;0.90;0.77;;;;;;;-145.06;100.00;60892.56;4792661;28;20042;-90
2022/05/22 07:05:41;;;;;;;2.55;1.20;;;;;;;-145.06;100.00;60892.56;4805786;28;20035;-91
2022/05/22 07:08:25;;;;;;;1.35;0.90;;;;;;;-145.06;100.00;60892.56;4804260;28;20022;-91
2022/05/22 07:14:27;;;;;;;2.40;1.10;;;;;;;-145.06;100.00;60892.56;4801892;28;20153;-91
2022/05/22 07:17:08;;;;;;;2.50;0.95;;;;;;;-145.06;100.00;60892.56;4815970;28;20030;-92
2022/05/22 07:19:54;;;;;;;1.55;0.80;;;;;;;-145.06;100.00;60892.56;4805591;28;20031;-92
2022/05/22 07:22:33;;;;;;;0.75;0.63;;;;;;;-145.06;100.00;60892.56;4804087;28;20026;-92
2022/05/22 07:25:12;;;;;;;1.48;0.90;;;;;;;-145.06;100.00;60892.56;4808746;28;20034;-90
2022/05/22 07:27:51;;;;;;;2.83;0.80;;;;;;;-145.06;100.00;60892.56;4791220;28;20039;-90
2022/05/22 07:30:33;;;;;;;0.80;0.60;;;;;;;-145.06;100.00;60892.56;4800768;28;20290;-90
2022/05/22 07:35:53;;;;;;;1.25;0.80;;;;;;;15.83;100.00;60892.56;4823109;28;20772;-92
2022/05/22 07:38:32;;;;;;;2.35;1.00;;;;;;;-145.06;100.00;60892.56;4779707;28;20035;-89
2022/05/22 07:41:14;;;;;;;1.33;0.93;;;;;;;-145.06;100.00;60892.56;4799563;28;20026;-90
2022/05/22 07:44:03;;;;;;;1.83;1.17;;;;;;;-145.06;100.00;60892.56;4783110;28;20028;-91
2022/05/22 07:46:45;;;;;;;3.72;1.38;;;;;;;-145.06;100.00;60892.56;4775036;29;20031;-91
2022/05/22 07:52:27;;;;;;;2.30;1.10;;;;;;;-145.06;100.00;60892.56;4784292;28;20578;-89
2022/05/22 07:55:14;;;;;;;4.82;1.20;;;;;;;-145.06;100.00;60892.56;4765503;28;20031;-90
2022/05/22 07:58:38;;;;;;;1.92;1.00;;;;;;;-145.06;100.00;60892.56;4792774;28;20031;-91
2022/05/22 08:01:18;;;;;;;1.83;1.00;;;;;;;-145.06;100.00;60892.56;4777713;28;20035;-91
2022/05/22 08:03:58;;;;;;;3.05;1.42;;;;;;;16.86;100.00;60892.56;4777482;28;20365;-90
2022/05/22 08:06:37;;;;;;;1.33;0.80;;;;;;;16.95;100.00;60892.56;4757602;29;20035;-90
2022/05/22 08:09:16;;;;;;;2.65;1.20;;;;;;;17.06;100.00;81064.09;4760142;29;20623;-90
2022/05/22 08:11:55;;;;;;;3.13;1.23;;;;;;;-145.06;100.00;60892.56;4765326;29;20035;-89
2022/05/22 08:14:34;;;;;;;4.13;1.75;;;;;;;-145.06;100.00;60892.56;4759998;29;20207;-90
2022/05/22 08:17:15;;;;;;;3.72;1.17;;;;;;;-145.06;100.00;60892.56;4770247;28;20035;-90
2022/05/22 08:19:54;;;;;;;3.00;1.35;;;;;;;17.83;100.00;60892.56;4769941;29;20063;-90
2022/05/22 08:22:33;;;;;;;6.70;1.70;;;;;;;-145.06;100.00;60892.56;4778966;28;20354;-90
2022/05/22 08:25:15;;;;;;;3.05;1.50;;;;;;;-145.06;100.00;60892.56;4767984;29;20361;-89
2022/05/22 08:27:56;;;;;;;3.33;1.30;;;;;;;-145.06;100.00;60892.56;4767405;29;20035;-90
2022/05/22 08:30:37;;;;;;;2.13;1.02;;;;;;;-145.06;100.00;60892.56;4770959;29;20039;-91
2022/05/22 08:33:16;;;;;;;1.48;0.75;;;;;;;-145.06;100.00;60892.56;4769842;28;20030;-89
2022/05/22 08:35:55;;;;;;;2.72;1.23;;;;;;;-145.06;100.00;60892.56;4781859;28;20031;-90
2022/05/22 08:38:34;;;;;;;1.40;1.05;;;;;;;-145.06;100.00;60892.56;4775627;29;20027;-90
2022/05/22 08:41:25;;;;;;;1.95;1.00;;;;;;;-145.06;100.00;60892.56;4780688;28;20042;-91
2022/05/22 08:44:12;;;;;;;2.03;0.88;;;;;;;-145.06;100.00;60892.56;4781379;28;20030;-89
2022/05/22 08:46:54;;;;;;;3.15;1.20;;;;;;;-145.06;100.00;60892.56;4770392;28;20047;-90
2022/05/22 08:49:38;;;;;;;2.25;1.02;;;;;;;-145.06;100.00;60892.56;4786450;28;20110;-89
2022/05/22 08:52:36;;;;;;;1.40;0.73;;;;;;;19.13;100.00;60892.56;4754147;28;20035;-89
2022/05/22 08:55:22;;;;;;;1.85;1.00;;;;;;;-145.06;100.00;60892.56;4783446;28;20067;-90
2022/05/22 09:01:09;;;;;;;2.35;1.08;;;;;;;-145.06;100.00;60892.56;4773986;28;20071;-90
2022/05/22 09:03:51;;;;;;;1.27;0.70;;;;;;;-145.06;100.00;60892.56;4754153;29;20055;-91
2022/05/22 09:06:38;;;;;;;1.92;0.80;;;;;;;-145.06;100.00;60892.56;4760939;28;20039;-90
2022/05/22 09:09:22;;;;;;;2.58;0.77;;;;;;;-145.06;100.00;60892.56;4776145;28;20031;-91
2022/05/22 09:12:10;;;;;;;1.27;0.70;;;;;;;-145.06;100.00;60892.56;4765228;29;20742;-91
2022/05/22 09:14:56;;;;;;;2.67;0.85;;;;;;;19.58;100.00;60892.56;4773680;28;20031;-92
2022/05/22 09:17:43;;;;;;;1.88;0.60;;;;;;;-145.06;100.00;60892.56;4774118;29;20035;-91
2022/05/22 09:20:36;;;;;;;0.40;0.30;;;;;;;-145.06;100.00;60892.56;4761487;29;20035;-91
2022/05/22 09:23:25;;;;;;;0.90;0.43;;;;;;;-145.06;100.00;60892.56;4766740;28;20039;-90
2022/05/22 09:26:18;;;;;;;1.58;0.40;;;;;;;-145.06;100.00;60892.56;4761009;29;20619;-90
2022/05/22 09:29:19;;;;;;;1.25;0.60;;;;;;;-145.06;100.00;60892.56;4753118;28;20044;-90
2022/05/22 09:32:25;;;;;;;1.17;0.60;;;;;;;-145.06;100.00;60892.56;4752943;29;20130;-91
2022/05/22 09:35:05;;;;;;;1.35;0.70;;;;;;;-145.06;100.00;60892.56;4766395;29;20531;-91
2022/05/22 09:38:06;;;;;;;0.60;0.40;;;;;;;-145.06;100.00;60892.56;4765323;29;20035;-91
2022/05/22 09:41:08;;;;;;;0.98;0.45;;;;;;;-145.06;100.00;60892.56;4767561;29;20039;-91
2022/05/22 09:44:41;;;;;;;0.52;0.40;;;;;;;-145.06;100.00;60892.56;4782291;28;20078;-90
2022/05/22 09:47:35;;;;;;;1.13;0.47;;;;;;;-145.06;100.00;60892.56;4756551;29;20035;-92
2022/05/22 09:50:23;;;;;;;0.65;0.45;;;;;;;20.79;100.00;60892.56;4770535;29;20638;-90
2022/05/22 09:53:16;;;;;;;2.13;0.95;;;;;;;-145.06;100.00;60892.56;4752351;28;20043;-90
2022/05/22 09:56:07;;;;;;;0.93;0.30;;;;;;;-145.06;100.00;60892.56;4777296;28;20035;-91
2022/05/22 09:58:58;;;;;;;1.50;0.63;;;;;;;21.02;100.00;60892.56;4767284;28;20059;-92
2022/05/22 10:01:42;;;;;;;0.90;0.40;;;;;;;-145.06;100.00;60892.56;4779341;29;20043;-91
2022/05/22 10:04:31;;;;;;;1.10;0.43;;;;;;;-145.06;100.00;60892.56;4762365;29;20035;-90
2022/05/22 10:07:31;;;;;;;2.63;0.45;;;;;;;-145.06;100.00;60892.56;4767004;28;20062;-90
2022/05/22 10:10:41;;;;;;;1.08;0.50;;;;;;;-145.06;100.00;60892.56;4765594;29;20156;-91
2022/05/22 10:14:06;;;;;;;0.52;0.40;;;;;;;-145.06;100.00;60892.56;4767973;29;20023;-92
2022/05/22 10:17:49;;;;;;;0.60;0.40;;;;;;;-145.06;100.00;60892.56;4769673;28;20039;-92
2022/05/22 10:20:56;;;;;;;1.10;0.60;;;;;;;-145.06;100.00;60892.56;4750554;29;20043;-92
2022/05/22 10:24:10;;;;;;;2.42;0.80;;;;;;;-145.06;100.00;60892.56;4761714;29;20035;-91
2022/05/22 10:27:16;;;;;;;0.70;0.40;;;;;;;-145.06;100.00;60892.56;4742561;28;20047;-89
2022/05/22 10:30:06;;;;;;;0.55;0.40;;;;;;;-145.06;100.00;60892.56;4759721;29;20039;-90
2022/05/22 10:32:54;;;;;;;0.45;0.45;;;;;;;-145.06;100.00;60892.56;4759215;28;20039;-90
2022/05/22 10:35:40;;;;;;;1.05;0.50;;;;;;;-145.06;100.00;60892.56;4761285;29;20904;-90
2022/05/22 10:38:24;;;;;;;1.40;0.30;;;;;;;-145.06;100.00;60892.56;4759483;29;20039;-90
2022/05/22 10:44:21;;;;;;;1.17;0.45;;;;;;;-145.06;100.00;60892.56;4770895;29;20031;-90
2022/05/22 10:47:02;;;;;;;2.60;0.63;;;;;;;-145.06;100.00;60892.56;4762399;28;20117;-91
2022/05/22 10:49:43;;;;;;;0.50;0.40;;;;;;;-145.06;100.00;60892.56;4757933;29;20039;-91
2022/05/22 10:52:25;;;;;;;0.50;0.30;;;;;;;-145.06;100.00;60892.56;4780145;28;20043;-92
2022/05/22 10:55:17;;;;;;;2.20;0.57;;;;;;;-145.06;100.00;60892.56;4768609;28;20070;-90
2022/05/22 10:58:01;;;;;;;1.48;0.57;;;;;;;22.78;100.00;60892.56;4769949;29;20054;-92
2022/05/22 11:00:54;;;;;;;1.30;0.88;;;;;;;-145.06;100.00;60892.56;4751759;29;20027;-92
2022/05/22 11:03:39;;;;;;;1.13;0.60;;;;;;;-145.06;100.00;60892.56;4763086;29;20039;-91
2022/05/22 11:06:21;;;;;;;1.50;0.47;;;;;;;-145.06;100.00;60892.56;4778301;28;20023;-93
2022/05/22 11:09:00;;;;;;;0.60;0.35;;;;;;;-145.06;100.00;60892.56;4768915;29;20122;-90
2022/05/22 11:11:40;;;;;;;0.38;0.30;;;;;;;-145.06;100.00;60892.56;4762173;29;20437;-91
2022/05/22 11:14:20;;;;;;;;;;;;;;;-145.06;100.00;60892.56;4765960;29;20430;-92
2022/05/22 11:17:17;;;;;;;0.50;0.40;;;;;;;-145.06;100.00;60892.56;4759374;29;19946;-93
2022/05/22 11:20:01;;;;;;;1.33;0.40;;;;;;;-145.06;100.00;60892.56;4749920;29;20031;-92
2022/05/22 11:23:01;;;;;;;0.25;0.20;;;;;;;-145.06;100.00;60892.56;4760926;29;20047;-93
2022/05/22 11:25:59;;;;;;;0.73;0.40;;;;;;;-145.06;100.00;60892.56;4767944;29;20035;-92
2022/05/22 11:29:32;;;;;;;1.42;0.40;;;;;;;-145.06;100.00;60892.56;4775904;29;20035;-92
2022/05/22 11:35:29;;;;;;;1.02;0.50;;;;;;;-145.06;100.00;60892.56;5193609;23;20406;-93
2022/05/22 11:42:35;;;;;;;;;;;;;;;24.45;100.00;60892.56;4792412;28;20134;-91
2022/05/22 11:45:48;;;;;;;0.50;0.25;;;;;;;24.58;100.00;60892.56;4786405;28;19950;-92
2022/05/22 11:56:15;;;;;;;1.05;0.40;;;;;;;24.93;100.00;60892.56;4792165;29;20035;-94
2022/05/22 11:59:33;;;;;;;;;;;;;;;;;;;;;
2022/05/22 12:10:29;;;;;;;;;;;;;;;;;;;;;
2022/05/22 12:13:59;;;;;;;;;;;;;;;;;;;;;
2022/05/22 12:34:15;;;;;;;;;;;;;;;;;;;;;
2022/05/22 12:49:04;;;;;;;;;;;;;;;;;;;;;
2022/05/22 12:59:42;;;;;;;;;;;;;;;;;;;;;
2022/05/22 13:02:41;;;;;;;0.95;0.35;;;;;;;-145.06;100.00;60892.56;4731075;29;20040;-92
2022/05/22 13:05:38;;;;;;;0.45;0.30;;;;;;;-145.06;100.00;60892.56;4753058;29;20391;-92
2022/05/22 13:11:53;;;;;;;0.88;0.43;;;;;;;-145.06;100.00;60892.56;4749395;29;20035;-93
2022/05/22 13:19:32;;;;;;;1.05;0.50;;;;;;;-145.06;100.00;60892.56;4675475;29;20042;-92
2022/05/22 13:26:23;;;;;;;0.50;0.45;;;;;;;-145.06;100.00;60892.56;4661489;29;20145;-94
2022/05/22 13:29:39;;;;;;;1.17;0.40;;;;;;;-145.06;100.00;60892.56;4742457;29;20039;-92
2022/05/22 13:32:48;;;;;;;0.82;0.50;;;;;;;-145.06;100.00;60892.56;4754582;29;20031;-93
2022/05/22 13:39:13;;;;;;;0.90;0.47;;;;;;;-145.06;100.00;60892.56;4717983;29;20685;-91
2022/05/22 13:58:52;;;;;;;0.30;0.30;;;;;;;-145.06;100.00;60892.56;4777480;28;20059;-92
2022/05/22 14:10:36;;;;;;;0.98;0.30;;;;;;;-145.06;100.00;60892.56;4777568;23;20047;-93
2022/05/22 14:23:26;;;;;;;0.70;0.40;;;;;;;-145.06;100.00;60892.56;5153849;23;20138;-86
2022/05/22 14:26:05;;;;;;;0.93;0.40;;;;;;;-145.06;100.00;60892.56;4740669;29;20032;-89
2022/05/22 14:32:16;;;;;;;0.80;0.50;;;;;;;-145.06;100.00;60892.56;4760121;29;20040;-91
2022/05/22 14:34:55;;;;;;;0.82;0.47;;;;;;;-145.06;100.00;60892.56;4752784;29;20043;-91
2022/05/22 14:37:41;;;;;;;0.50;0.30;;;;;;;-145.06;100.00;60892.56;4746353;29;20438;-89
2022/05/22 14:51:57;;;;;;;1.08;0.38;;;;;;;-145.06;100.00;60892.56;4794131;28;20057;-90
2022/05/22 14:54:41;;;;;;;0.73;0.50;;;;;;;-145.06;100.00;60892.56;4766921;28;20138;-90
2022/05/22 15:04:44;;;;;;;0.85;0.43;;;;;;;-145.06;100.00;60892.56;4755942;28;20036;-90
2022/05/22 15:07:28;;;;;;;0.73;0.50;;;;;;;-145.06;100.00;60892.56;4772330;28;20038;-90
2022/05/22 15:10:22;;;;;;;0.80;0.40;;;;;;;-145.06;100.00;60892.56;4763147;28;20035;-91
2022/05/22 15:13:12;;;;;;;1.35;0.40;;;;;;;-145.06;100.00;60892.56;4778264;28;20465;-90
2022/05/22 15:15:52;;;;;;;0.77;0.30;;;;;;;-145.06;100.00;60892.56;4770820;28;20651;-90
2022/05/22 15:57:51;;;;;;;0.35;0.22;;;;;;;-145.06;100.00;60892.56;4964854;23;20039;-92
2022/05/22 16:27:09;;;;;;;;;;;;;;;;;;;;;
2022/05/22 16:30:17;;;;;;;0.63;0.30;;;;;;;-145.06;100.00;60892.56;4722529;29;20040;-89
2022/05/22 16:33:05;;;;;;;1.17;0.43;;;;;;;-145.06;100.00;60892.56;4725619;29;20032;-89
2022/05/22 16:39:42;;;;;;;0.40;0.30;;;;;;;-145.06;100.00;60892.56;4702249;29;20809;-89
2022/05/22 16:42:38;;;;;;;2.33;0.52;;;;;;;-145.06;100.00;60892.56;4720825;29;20426;-89
2022/05/22 16:45:25;;;;;;;0.85;0.38;;;;;;;-145.06;100.00;60892.56;4704963;29;20045;-90
2022/05/22 16:54:44;;;;;;;0.75;0.20;;;;;;;-145.06;100.00;60892.56;4727640;29;20005;-91